Terminal Aerodrome Forecast
Issued by NWS

Home | Current Version | Previous Version | Text Only | Print | Product List | Glossary On
Versions: 1 2 3 4 5 6 7 8 9 10 11 12 13 14
000
FTUS43 KIND 260556 RRA
TAFLAF
TAF
KLAF 260556Z 2606/2706 27005KT P6SM FEW250
     FM261500 28009KT P6SM FEW250
     FM261900 28012KT P6SM VCSH BKN100
     FM270000 29008KT P6SM BKN100
     FM270100 29007KT P6SM SCT110
     FM270400 VRB03KT P6SM SCT200
      AMD LTD TO CLD VIS AND WIND TIL 261300=

USA.gov is the U.S. government's official web portal to all federal, state and local government web resources and services.